sensor_id;sensor_type;location;lat;lon;timestamp;pressure;altitude;pressure_sealevel;temperature;humidity
69751;BME280;57335;52.288;6.056;2023-02-28T00:00:34;103215.63;;;-0.92;100.00
69751;BME280;57335;52.288;6.056;2023-02-28T00:03:01;103223.75;;;-0.82;100.00
69751;BME280;57335;52.288;6.056;2023-02-28T00:05:28;103217.47;;;-0.76;100.00
69751;BME280;57335;52.288;6.056;2023-02-28T00:07:55;103203.75;;;-0.77;100.00
69751;BME280;57335;52.288;6.056;2023-02-28T00:10:24;103215.09;;;-0.62;100.00
69751;BME280;57335;52.288;6.056;2023-02-28T00:12:51;103203.91;;;-0.63;100.00
69751;BME280;57335;52.288;6.056;2023-02-28T00:15:18;103195.75;;;-0.53;100.00
69751;BME280;57335;52.288;6.056;2023-02-28T00:17:45;103207.97;;;-0.39;100.00
69751;BME280;57335;52.288;6.056;2023-02-28T00:20:13;103212.00;;;-0.34;100.00
69751;BME280;57335;52.288;6.056;2023-02-28T00:22:42;103212.59;;;-0.29;100.00
69751;BME280;57335;52.288;6.056;2023-02-28T00:25:11;103208.88;;;-0.23;100.00
69751;BME280;57335;52.288;6.056;2023-02-28T00:27:38;103198.72;;;-0.26;100.00
69751;BME280;57335;52.288;6.056;2023-02-28T00:30:08;103202.59;;;-0.17;100.00
69751;BME280;57335;52.288;6.056;2023-02-28T00:32:35;103199.84;;;-0.14;100.00
69751;BME280;57335;52.288;6.056;2023-02-28T00:35:03;103206.94;;;-0.02;100.00
69751;BME280;57335;52.288;6.056;2023-02-28T00:37:31;103212.72;;;0.03;100.00
69751;BME280;57335;52.288;6.056;2023-02-28T00:39:57;103200.97;;;-0.03;100.00
69751;BME280;57335;52.288;6.056;2023-02-28T00:42:24;103205.22;;;-0.02;100.00
69751;BME280;57335;52.288;6.056;2023-02-28T00:44:51;103190.66;;;-0.03;100.00
69751;BME280;57335;52.288;6.056;2023-02-28T00:47:17;103193.09;;;0.01;100.00
69751;BME280;57335;52.288;6.056;2023-02-28T00:49:44;103208.00;;;0.11;100.00
69751;BME280;57335;52.288;6.056;2023-02-28T00:52:10;103196.69;;;0.14;100.00
69751;BME280;57335;52.288;6.056;2023-02-28T00:54:36;103191.63;;;0.12;100.00
69751;BME280;57335;52.288;6.056;2023-02-28T00:57:03;103197.38;;;0.17;100.00
69751;BME280;57335;52.288;6.056;2023-02-28T00:59:29;103189.56;;;0.19;100.00
69751;BME280;57335;52.288;6.056;2023-02-28T01:01:55;103204.47;;;0.30;100.00
69751;BME280;57335;52.288;6.056;2023-02-28T01:04:22;103201.75;;;0.33;100.00
69751;BME280;57335;52.288;6.056;2023-02-28T01:06:48;103192.31;;;0.32;100.00
69751;BME280;57335;52.288;6.056;2023-02-28T01:09:15;103192.94;;;0.37;100.00
69751;BME280;57335;52.288;6.056;2023-02-28T01:11:41;103176.78;;;0.33;100.00
69751;BME280;57335;52.288;6.056;2023-02-28T01:14:08;103190.63;;;0.48;100.00
69751;BME280;57335;52.288;6.056;2023-02-28T01:16:34;103192.88;;;0.54;100.00
69751;BME280;57335;52.288;6.056;2023-02-28T01:19:01;103198.59;;;0.59;100.00
69751;BME280;57335;52.288;6.056;2023-02-28T01:21:27;103193.69;;;0.55;100.00
69751;BME280;57335;52.288;6.056;2023-02-28T01:23:56;103196.44;;;0.52;100.00
69751;BME280;57335;52.288;6.056;2023-02-28T01:26:24;103201.00;;;0.47;100.00
69751;BME280;57335;52.288;6.056;2023-02-28T01:28:51;103194.28;;;0.44;100.00
69751;BME280;57335;52.288;6.056;2023-02-28T01:31:19;103188.53;;;0.39;100.00
69751;BME280;57335;52.288;6.056;2023-02-28T01:33:46;103187.69;;;0.38;100.00
69751;BME280;57335;52.288;6.056;2023-02-28T01:36:15;103185.13;;;0.38;100.00
69751;BME280;57335;52.288;6.056;2023-02-28T01:38:43;103176.53;;;0.38;100.00
69751;BME280;57335;52.288;6.056;2023-02-28T01:41:15;103178.03;;;0.42;100.00
69751;BME280;57335;52.288;6.056;2023-02-28T01:46:09;103199.75;;;0.54;100.00
69751;BME280;57335;52.288;6.056;2023-02-28T01:48:38;103182.28;;;0.43;100.00
69751;BME280;57335;52.288;6.056;2023-02-28T01:51:12;103194.69;;;0.52;100.00
69751;BME280;57335;52.288;6.056;2023-02-28T01:53:41;103192.19;;;0.51;100.00
69751;BME280;57335;52.288;6.056;2023-02-28T01:56:11;103174.47;;;0.45;100.00
69751;BME280;57335;52.288;6.056;2023-02-28T01:58:39;103182.13;;;0.46;100.00
69751;BME280;57335;52.288;6.056;2023-02-28T02:01:06;103168.47;;;0.44;100.00
69751;BME280;57335;52.288;6.056;2023-02-28T02:03:32;103171.72;;;0.48;100.00
69751;BME280;57335;52.288;6.056;2023-02-28T02:05:58;103178.38;;;0.52;100.00
69751;BME280;57335;52.288;6.056;2023-02-28T02:08:26;103175.72;;;0.53;100.00
69751;BME280;57335;52.288;6.056;2023-02-28T02:10:56;103181.28;;;0.62;100.00
69751;BME280;57335;52.288;6.056;2023-02-28T02:27:47;103176.47;;;0.71;100.00
69751;BME280;57335;52.288;6.056;2023-02-28T02:31:02;103182.31;;;0.75;100.00
69751;BME280;57335;52.288;6.056;2023-02-28T02:33:38;103181.16;;;0.81;100.00
69751;BME280;57335;52.288;6.056;2023-02-28T02:36:31;103175.06;;;0.82;100.00
69751;BME280;57335;52.288;6.056;2023-02-28T02:39:08;103181.38;;;0.92;100.00
69751;BME280;57335;52.288;6.056;2023-02-28T02:41:46;103171.31;;;0.87;100.00
69751;BME280;57335;52.288;6.056;2023-02-28T02:44:23;103177.69;;;0.96;100.00
69751;BME280;57335;52.288;6.056;2023-02-28T02:46:53;103187.59;;;1.04;100.00
69751;BME280;57335;52.288;6.056;2023-02-28T02:49:25;103186.44;;;1.09;100.00
69751;BME280;57335;52.288;6.056;2023-02-28T02:51:53;103178.78;;;1.08;100.00
69751;BME280;57335;52.288;6.056;2023-02-28T02:54:24;103185.63;;;1.09;100.00
69751;BME280;57335;52.288;6.056;2023-02-28T02:56:53;103187.78;;;1.16;100.00
69751;BME280;57335;52.288;6.056;2023-02-28T02:59:21;103188.25;;;1.23;100.00
69751;BME280;57335;52.288;6.056;2023-02-28T03:01:52;103181.59;;;1.19;100.00
69751;BME280;57335;52.288;6.056;2023-02-28T03:04:22;103179.75;;;1.21;100.00
69751;BME280;57335;52.288;6.056;2023-02-28T03:06:50;103194.91;;;1.27;100.00
69751;BME280;57335;52.288;6.056;2023-02-28T03:09:17;103175.75;;;1.15;100.00
69751;BME280;57335;52.288;6.056;2023-02-28T03:11:44;103189.00;;;1.25;100.00
69751;BME280;57335;52.288;6.056;2023-02-28T03:14:25;103208.56;;;1.29;100.00
69751;BME280;57335;52.288;6.056;2023-02-28T03:19:45;103202.94;;;1.23;100.00
69751;BME280;57335;52.288;6.056;2023-02-28T03:22:30;103207.25;;;1.22;100.00
69751;BME280;57335;52.288;6.056;2023-02-28T03:28:13;103204.56;;;1.24;100.00
69751;BME280;57335;52.288;6.056;2023-02-28T03:33:36;103210.22;;;1.30;100.00
69751;BME280;57335;52.288;6.056;2023-02-28T03:36:10;103194.72;;;1.30;100.00
69751;BME280;57335;52.288;6.056;2023-02-28T03:38:56;103189.03;;;1.39;100.00
69751;BME280;57335;52.288;6.056;2023-02-28T03:41:35;103198.47;;;1.41;100.00
69751;BME280;57335;52.288;6.056;2023-02-28T03:44:10;103182.38;;;1.35;99.69
69751;BME280;57335;52.288;6.056;2023-02-28T03:46:42;103189.56;;;1.30;97.16
69751;BME280;57335;52.288;6.056;2023-02-28T03:49:18;103205.56;;;1.37;96.52
69751;BME280;57335;52.288;6.056;2023-02-28T03:51:47;103196.88;;;1.38;96.01
69751;BME280;57335;52.288;6.056;2023-02-28T03:54:21;103197.72;;;1.38;96.50
69751;BME280;57335;52.288;6.056;2023-02-28T03:56:59;103190.53;;;1.44;96.32
69751;BME280;57335;52.288;6.056;2023-02-28T03:59:32;103183.88;;;1.39;96.82
69751;BME280;57335;52.288;6.056;2023-02-28T04:02:00;103183.06;;;1.39;96.50
69751;BME280;57335;52.288;6.056;2023-02-28T04:04:27;103200.50;;;1.50;96.81
69751;BME280;57335;52.288;6.056;2023-02-28T04:07:05;103198.88;;;1.49;95.32
69751;BME280;57335;52.288;6.056;2023-02-28T04:09:31;103179.28;;;1.45;95.59
69751;BME280;57335;52.288;6.056;2023-02-28T04:11:58;103190.38;;;1.47;95.71
69751;BME280;57335;52.288;6.056;2023-02-28T04:14:24;103200.16;;;1.56;96.56
69751;BME280;57335;52.288;6.056;2023-02-28T04:16:51;103181.59;;;1.49;96.77
69751;BME280;57335;52.288;6.056;2023-02-28T04:19:17;103181.88;;;1.45;95.96
69751;BME280;57335;52.288;6.056;2023-02-28T04:21:49;103184.19;;;1.49;93.69
69751;BME280;57335;52.288;6.056;2023-02-28T04:24:18;103184.47;;;1.45;93.54
69751;BME280;57335;52.288;6.056;2023-02-28T04:26:47;103187.03;;;1.45;92.99
69751;BME280;57335;52.288;6.056;2023-02-28T04:29:19;103185.56;;;1.41;92.80
69751;BME280;57335;52.288;6.056;2023-02-28T04:31:45;103182.84;;;1.42;93.20
69751;BME280;57335;52.288;6.056;2023-02-28T04:34:12;103193.69;;;1.49;90.78
69751;BME280;57335;52.288;6.056;2023-02-28T04:36:39;103177.69;;;1.42;92.29
69751;BME280;57335;52.288;6.056;2023-02-28T04:39:05;103199.59;;;1.51;92.68
69751;BME280;57335;52.288;6.056;2023-02-28T04:41:31;103181.69;;;1.48;92.84
69751;BME280;57335;52.288;6.056;2023-02-28T04:43:59;103192.53;;;1.54;93.30
69751;BME280;57335;52.288;6.056;2023-02-28T04:46:25;103186.50;;;1.54;94.42
69751;BME280;57335;52.288;6.056;2023-02-28T04:48:51;103188.25;;;1.53;94.68
69751;BME280;57335;52.288;6.056;2023-02-28T04:51:18;103186.84;;;1.48;95.18
69751;BME280;57335;52.288;6.056;2023-02-28T04:53:44;103190.91;;;1.52;95.21
69751;BME280;57335;52.288;6.056;2023-02-28T04:56:13;103188.34;;;1.52;95.70
69751;BME280;57335;52.288;6.056;2023-02-28T04:58:39;103179.38;;;1.43;96.19
69751;BME280;57335;52.288;6.056;2023-02-28T05:01:16;103190.19;;;1.50;96.04
69751;BME280;57335;52.288;6.056;2023-02-28T05:03:43;103181.88;;;1.45;95.47
69751;BME280;57335;52.288;6.056;2023-02-28T05:06:11;103187.03;;;1.45;95.89
69751;BME280;57335;52.288;6.056;2023-02-28T05:08:38;103182.69;;;1.45;96.06
69751;BME280;57335;52.288;6.056;2023-02-28T05:11:06;103176.94;;;1.40;96.00
69751;BME280;57335;52.288;6.056;2023-02-28T05:13:33;103179.28;;;1.45;96.73
69751;BME280;57335;52.288;6.056;2023-02-28T05:15:59;103178.72;;;1.39;97.06
69751;BME280;57335;52.288;6.056;2023-02-28T05:18:26;103192.22;;;1.45;97.13
69751;BME280;57335;52.288;6.056;2023-02-28T05:20:52;103182.22;;;1.38;96.68
69751;BME280;57335;52.288;6.056;2023-02-28T05:23:20;103186.38;;;1.41;96.48
69751;BME280;57335;52.288;6.056;2023-02-28T05:25:48;103187.13;;;1.43;96.31
69751;BME280;57335;52.288;6.056;2023-02-28T05:28:14;103180.84;;;1.47;95.86
69751;BME280;57335;52.288;6.056;2023-02-28T05:30:41;103176.94;;;1.40;96.04
69751;BME280;57335;52.288;6.056;2023-02-28T05:33:10;103175.97;;;1.43;96.10
69751;BME280;57335;52.288;6.056;2023-02-28T05:35:40;103173.53;;;1.39;96.43
69751;BME280;57335;52.288;6.056;2023-02-28T05:38:07;103168.66;;;1.35;96.16
69751;BME280;57335;52.288;6.056;2023-02-28T05:40:34;103188.88;;;1.43;96.58
69751;BME280;57335;52.288;6.056;2023-02-28T05:43:00;103174.72;;;1.34;96.94
69751;BME280;57335;52.288;6.056;2023-02-28T05:45:27;103171.38;;;1.32;96.93
69751;BME280;57335;52.288;6.056;2023-02-28T05:47:54;103185.06;;;1.34;97.01
69751;BME280;57335;52.288;6.056;2023-02-28T05:50:20;103192.91;;;1.32;96.72
69751;BME280;57335;52.288;6.056;2023-02-28T05:52:51;103195.66;;;1.29;96.29
69751;BME280;57335;52.288;6.056;2023-02-28T05:55:17;103188.41;;;1.20;97.17
69751;BME280;57335;52.288;6.056;2023-02-28T05:57:44;103181.75;;;1.16;97.86
69751;BME280;57335;52.288;6.056;2023-02-28T06:00:11;103202.81;;;1.24;98.01
69751;BME280;57335;52.288;6.056;2023-02-28T06:02:40;103192.09;;;1.16;98.17
69751;BME280;57335;52.288;6.056;2023-02-28T06:05:13;103197.84;;;1.21;98.07
69751;BME280;57335;52.288;6.056;2023-02-28T06:07:40;103192.66;;;1.21;98.07
69751;BME280;57335;52.288;6.056;2023-02-28T06:10:06;103199.59;;;1.21;98.03
69751;BME280;57335;52.288;6.056;2023-02-28T06:12:33;103175.28;;;1.09;97.39
69751;BME280;57335;52.288;6.056;2023-02-28T06:14:59;103184.44;;;1.14;97.56
69751;BME280;57335;52.288;6.056;2023-02-28T06:17:25;103196.34;;;1.17;96.86
69751;BME280;57335;52.288;6.056;2023-02-28T06:19:52;103203.47;;;1.28;97.40
69751;BME280;57335;52.288;6.056;2023-02-28T06:22:18;103203.66;;;1.25;97.30
69751;BME280;57335;52.288;6.056;2023-02-28T06:24:45;103206.16;;;1.26;97.75
69751;BME280;57335;52.288;6.056;2023-02-28T06:27:11;103193.84;;;1.15;98.98
69751;BME280;57335;52.288;6.056;2023-02-28T06:29:37;103199.28;;;1.11;100.00
69751;BME280;57335;52.288;6.056;2023-02-28T06:32:04;103208.59;;;1.13;99.65
69751;BME280;57335;52.288;6.056;2023-02-28T06:34:30;103214.25;;;1.20;99.29
69751;BME280;57335;52.288;6.056;2023-02-28T06:36:57;103212.41;;;1.22;99.34
69751;BME280;57335;52.288;6.056;2023-02-28T06:39:23;103218.06;;;1.29;99.55
69751;BME280;57335;52.288;6.056;2023-02-28T06:41:49;103191.75;;;1.22;98.94
69751;BME280;57335;52.288;6.056;2023-02-28T06:44:22;103221.13;;;1.35;98.97
69751;BME280;57335;52.288;6.056;2023-02-28T06:46:49;103221.06;;;1.37;98.87
69751;BME280;57335;52.288;6.056;2023-02-28T06:49:16;103219.88;;;1.43;98.77
69751;BME280;57335;52.288;6.056;2023-02-28T06:51:44;103223.09;;;1.46;98.04
69751;BME280;57335;52.288;6.056;2023-02-28T06:54:11;103233.34;;;1.48;98.22
69751;BME280;57335;52.288;6.056;2023-02-28T06:56:38;103232.28;;;1.52;98.35
69751;BME280;57335;52.288;6.056;2023-02-28T06:59:04;103236.97;;;1.75;100.00
69751;BME280;57335;52.288;6.056;2023-02-28T07:01:31;103244.16;;;2.15;100.00
69751;BME280;57335;52.288;6.056;2023-02-28T07:03:59;103244.34;;;2.55;93.37
69751;BME280;57335;52.288;6.056;2023-02-28T07:06:26;103250.38;;;2.83;90.19
69751;BME280;57335;52.288;6.056;2023-02-28T07:08:53;103254.19;;;2.91;88.10
69751;BME280;57335;52.288;6.056;2023-02-28T07:11:21;103246.31;;;2.93;88.12
69751;BME280;57335;52.288;6.056;2023-02-28T07:13:48;103240.28;;;2.92;88.42
69751;BME280;57335;52.288;6.056;2023-02-28T07:16:15;103218.47;;;2.82;90.09
69751;BME280;57335;52.288;6.056;2023-02-28T07:18:41;103211.75;;;2.79;91.60
69751;BME280;57335;52.288;6.056;2023-02-28T07:21:09;103225.47;;;2.94;90.58
69751;BME280;57335;52.288;6.056;2023-02-28T07:23:37;103242.41;;;3.00;89.06
69751;BME280;57335;52.288;6.056;2023-02-28T07:26:11;103251.38;;;3.09;88.94
69751;BME280;57335;52.288;6.056;2023-02-28T07:28:38;103249.88;;;3.05;86.85
69751;BME280;57335;52.288;6.056;2023-02-28T07:31:05;103252.19;;;3.09;88.27
69751;BME280;57335;52.288;6.056;2023-02-28T07:33:32;103244.84;;;3.16;88.54
69751;BME280;57335;52.288;6.056;2023-02-28T07:36:07;103238.75;;;3.17;86.26
69751;BME280;57335;52.288;6.056;2023-02-28T07:38:35;103250.59;;;3.21;88.03
69751;BME280;57335;52.288;6.056;2023-02-28T07:41:02;103263.06;;;3.29;87.73
69751;BME280;57335;52.288;6.056;2023-02-28T07:43:29;103254.09;;;3.20;88.33
69751;BME280;57335;52.288;6.056;2023-02-28T07:46:00;103255.44;;;3.13;85.53
69751;BME280;57335;52.288;6.056;2023-02-28T07:48:26;103267.44;;;3.14;86.89
69751;BME280;57335;52.288;6.056;2023-02-28T07:50:57;103258.94;;;3.12;88.14
69751;BME280;57335;52.288;6.056;2023-02-28T07:53:23;103272.16;;;3.22;86.99
69751;BME280;57335;52.288;6.056;2023-02-28T07:55:50;103265.66;;;3.29;85.36
69751;BME280;57335;52.288;6.056;2023-02-28T07:58:16;103256.19;;;3.28;84.81
69751;BME280;57335;52.288;6.056;2023-02-28T08:00:42;103271.78;;;3.40;85.20
69751;BME280;57335;52.288;6.056;2023-02-28T08:03:12;103276.22;;;3.53;84.82
69751;BME280;57335;52.288;6.056;2023-02-28T08:05:39;103261.91;;;3.60;83.65
69751;BME280;57335;52.288;6.056;2023-02-28T08:08:07;103279.47;;;3.82;82.37
69751;BME280;57335;52.288;6.056;2023-02-28T08:10:34;103280.34;;;3.95;82.59
69751;BME280;57335;52.288;6.056;2023-02-28T08:13:00;103267.06;;;4.00;81.38
69751;BME280;57335;52.288;6.056;2023-02-28T08:15:26;103271.00;;;4.18;81.94
69751;BME280;57335;52.288;6.056;2023-02-28T08:17:53;103273.19;;;4.37;81.05
69751;BME280;57335;52.288;6.056;2023-02-28T08:20:19;103257.38;;;4.53;79.80
69751;BME280;57335;52.288;6.056;2023-02-28T08:22:45;103279.78;;;4.80;79.44
69751;BME280;57335;52.288;6.056;2023-02-28T08:25:12;103262.81;;;4.87;77.92
69751;BME280;57335;52.288;6.056;2023-02-28T08:27:38;103267.53;;;5.06;75.60
69751;BME280;57335;52.288;6.056;2023-02-28T08:30:05;103255.06;;;5.35;69.30
69751;BME280;57335;52.288;6.056;2023-02-28T08:32:33;103272.22;;;5.73;63.02
69751;BME280;57335;52.288;6.056;2023-02-28T08:34:59;103276.94;;;6.15;61.33
69751;BME280;57335;52.288;6.056;2023-02-28T08:37:26;103267.72;;;6.33;59.14
69751;BME280;57335;52.288;6.056;2023-02-28T08:39:52;103280.97;;;6.53;54.15
69751;BME280;57335;52.288;6.056;2023-02-28T08:42:21;103279.44;;;6.73;54.44
69751;BME280;57335;52.288;6.056;2023-02-28T08:44:48;103279.53;;;6.83;53.63
69751;BME280;57335;52.288;6.056;2023-02-28T08:47:15;103273.22;;;7.08;53.89
69751;BME280;57335;52.288;6.056;2023-02-28T08:49:41;103269.41;;;7.12;49.71
69751;BME280;57335;52.288;6.056;2023-02-28T08:52:08;103273.84;;;7.32;50.45
69751;BME280;57335;52.288;6.056;2023-02-28T08:54:35;103272.81;;;7.24;49.07
69751;BME280;57335;52.288;6.056;2023-02-28T08:57:02;103269.22;;;7.36;48.35
69751;BME280;57335;52.288;6.056;2023-02-28T08:59:29;103268.84;;;7.41;47.47
69751;BME280;57335;52.288;6.056;2023-02-28T09:01:56;103266.25;;;7.29;48.86
69751;BME280;57335;52.288;6.056;2023-02-28T09:04:22;103274.94;;;7.51;46.88
69751;BME280;57335;52.288;6.056;2023-02-28T09:06:50;103264.94;;;7.35;46.28
69751;BME280;57335;52.288;6.056;2023-02-28T09:09:17;103270.13;;;7.67;47.21
69751;BME280;57335;52.288;6.056;2023-02-28T09:11:43;103276.22;;;7.77;46.52
69751;BME280;57335;52.288;6.056;2023-02-28T09:14:10;103269.50;;;7.96;46.25
69751;BME280;57335;52.288;6.056;2023-02-28T09:16:36;103276.09;;;8.42;42.92
69751;BME280;57335;52.288;6.056;2023-02-28T09:19:03;103286.66;;;8.19;43.70
69751;BME280;57335;52.288;6.056;2023-02-28T09:21:30;103257.59;;;7.82;45.17
69751;BME280;57335;52.288;6.056;2023-02-28T09:23:56;103278.16;;;7.96;43.36
69751;BME280;57335;52.288;6.056;2023-02-28T09:26:25;103265.69;;;8.00;42.54
69751;BME280;57335;52.288;6.056;2023-02-28T09:29:04;103269.84;;;7.49;44.61
69751;BME280;57335;52.288;6.056;2023-02-28T09:31:30;103276.25;;;7.24;46.76
69751;BME280;57335;52.288;6.056;2023-02-28T09:33:58;103263.75;;;6.95;47.23
69751;BME280;57335;52.288;6.056;2023-02-28T09:36:26;103269.44;;;7.33;44.95
69751;BME280;57335;52.288;6.056;2023-02-28T09:39:09;103273.16;;;7.19;44.10
69751;BME280;57335;52.288;6.056;2023-02-28T09:41:42;103262.16;;;7.15;44.22
69751;BME280;57335;52.288;6.056;2023-02-28T09:44:15;103277.25;;;7.12;43.99
69751;BME280;57335;52.288;6.056;2023-02-28T09:46:47;103268.91;;;7.18;43.80
69751;BME280;57335;52.288;6.056;2023-02-28T09:49:17;103271.41;;;7.52;40.58
69751;BME280;57335;52.288;6.056;2023-02-28T09:51:58;103272.97;;;7.43;42.57
69751;BME280;57335;52.288;6.056;2023-02-28T09:54:28;103268.72;;;7.42;43.55
69751;BME280;57335;52.288;6.056;2023-02-28T09:57:00;103266.25;;;7.29;44.53
69751;BME280;57335;52.288;6.056;2023-02-28T10:02:37;103283.41;;;7.43;44.48
69751;BME280;57335;52.288;6.056;2023-02-28T10:05:18;103277.19;;;7.55;44.84
69751;BME280;57335;52.288;6.056;2023-02-28T10:13:06;103271.53;;;7.92;40.96
69751;BME280;57335;52.288;6.056;2023-02-28T10:15:38;103261.16;;;7.60;41.58
69751;BME280;57335;52.288;6.056;2023-02-28T10:18:11;103263.72;;;7.39;43.31
69751;BME280;57335;52.288;6.056;2023-02-28T10:20:42;103263.72;;;7.39;42.75
69751;BME280;57335;52.288;6.056;2023-02-28T10:25:37;103277.44;;;7.20;42.46
69751;BME280;57335;52.288;6.056;2023-02-28T10:30:35;103257.19;;;7.24;45.15
69751;BME280;57335;52.288;6.056;2023-02-28T10:33:02;103263.72;;;7.39;45.24
69751;BME280;57335;52.288;6.056;2023-02-28T10:35:29;103256.44;;;7.54;44.62
69751;BME280;57335;52.288;6.056;2023-02-28T10:37:57;103243.22;;;7.67;42.89
69751;BME280;57335;52.288;6.056;2023-02-28T10:40:34;103241.09;;;7.82;41.61
69751;BME280;57335;52.288;6.056;2023-02-28T10:45:33;103237.16;;;7.66;40.31
69751;BME280;57335;52.288;6.056;2023-02-28T10:48:22;103245.81;;;7.88;42.23
69751;BME280;57335;52.288;6.056;2023-02-28T10:50:53;103251.34;;;7.73;41.35
69751;BME280;57335;52.288;6.056;2023-02-28T11:01:44;103245.31;;;7.52;44.30
69751;BME280;57335;52.288;6.056;2023-02-28T11:06:46;103244.81;;;7.58;41.00
69751;BME280;57335;52.288;6.056;2023-02-28T11:09:22;103247.41;;;7.58;41.38
69751;BME280;57335;52.288;6.056;2023-02-28T11:11:49;103223.75;;;7.50;42.54
69751;BME280;57335;52.288;6.056;2023-02-28T11:14:22;103243.00;;;7.58;44.06
69751;BME280;57335;52.288;6.056;2023-02-28T11:16:50;103243.78;;;7.70;43.99
69751;BME280;57335;52.288;6.056;2023-02-28T11:19:37;103243.78;;;7.70;40.56
69751;BME280;57335;52.288;6.056;2023-02-28T11:22:06;103230.97;;;7.46;41.52
69751;BME280;57335;52.288;6.056;2023-02-28T11:24:41;103226.59;;;7.47;41.27
69751;BME280;57335;52.288;6.056;2023-02-28T11:29:58;103222.84;;;7.61;45.58
69751;BME280;57335;52.288;6.056;2023-02-28T11:32:27;103222.53;;;7.54;43.18
69751;BME280;57335;52.288;6.056;2023-02-28T11:35:15;103217.66;;;7.28;43.86
69751;BME280;57335;52.288;6.056;2023-02-28T11:37:43;103225.00;;;7.34;41.01
69751;BME280;57335;52.288;6.056;2023-02-28T11:40:43;103216.97;;;7.26;42.65
69751;BME280;57335;52.288;6.056;2023-02-28T11:46:26;103211.34;;;7.31;46.56
69751;BME280;57335;52.288;6.056;2023-02-28T11:52:10;103192.09;;;7.22;44.82
69751;BME280;57335;52.288;6.056;2023-02-28T11:57:32;103206.66;;;7.25;44.67
69751;BME280;57335;52.288;6.056;2023-02-28T12:03:17;103205.56;;;7.27;44.17
69751;BME280;57335;52.288;6.056;2023-02-28T12:05:51;103202.00;;;7.28;44.12
69751;BME280;57335;52.288;6.056;2023-02-28T12:08:31;103204.06;;;7.13;43.59
69751;BME280;57335;52.288;6.056;2023-02-28T12:22:02;103195.31;;;7.14;44.43
69751;BME280;57335;52.288;6.056;2023-02-28T12:24:54;103189.72;;;7.19;44.02
69751;BME280;57335;52.288;6.056;2023-02-28T12:27:26;103190.19;;;7.24;43.93
69751;BME280;57335;52.288;6.056;2023-02-28T12:30:04;103166.25;;;7.19;43.87
69751;BME280;57335;52.288;6.056;2023-02-28T12:32:36;103164.47;;;7.19;45.47
69751;BME280;57335;52.288;6.056;2023-02-28T12:35:25;103187.78;;;7.32;45.25
69751;BME280;57335;52.288;6.056;2023-02-28T12:38:02;103174.84;;;7.31;42.67
69751;BME280;57335;52.288;6.056;2023-02-28T12:40:43;103160.59;;;7.14;41.68
69751;BME280;57335;52.288;6.056;2023-02-28T12:43:12;103158.53;;;7.17;42.78
69751;BME280;57335;52.288;6.056;2023-02-28T12:46:05;103164.09;;;7.24;42.45
69751;BME280;57335;52.288;6.056;2023-02-28T12:48:42;103164.53;;;7.29;43.84
69751;BME280;57335;52.288;6.056;2023-02-28T12:51:10;103166.44;;;7.27;42.80
69751;BME280;57335;52.288;6.056;2023-02-28T12:53:54;103175.44;;;7.34;43.11
69751;BME280;57335;52.288;6.056;2023-02-28T12:56:37;103158.50;;;7.29;43.89
69751;BME280;57335;52.288;6.056;2023-02-28T12:59:33;103141.13;;;7.18;45.51
69751;BME280;57335;52.288;6.056;2023-02-28T13:10:16;103134.25;;;7.38;41.84
69751;BME280;57335;52.288;6.056;2023-02-28T13:12:57;103123.78;;;7.28;42.14
69751;BME280;57335;52.288;6.056;2023-02-28T13:15:27;103125.69;;;7.26;41.43
69751;BME280;57335;52.288;6.056;2023-02-28T13:17:56;103132.72;;;7.14;44.23
69751;BME280;57335;52.288;6.056;2023-02-28T13:20:31;103130.75;;;7.07;44.35
69751;BME280;57335;52.288;6.056;2023-02-28T13:23:00;103136.63;;;7.20;45.01
69751;BME280;57335;52.288;6.056;2023-02-28T13:28:12;103124.00;;;7.25;44.54
69751;BME280;57335;52.288;6.056;2023-02-28T13:33:27;103127.25;;;7.17;45.49
69751;BME280;57335;52.288;6.056;2023-02-28T13:49:20;103122.31;;;7.14;43.76
69751;BME280;57335;52.288;6.056;2023-02-28T13:51:51;103100.88;;;7.11;43.22
69751;BME280;57335;52.288;6.056;2023-02-28T13:54:48;103129.09;;;7.06;44.46
69751;BME280;57335;52.288;6.056;2023-02-28T14:05:17;103104.28;;;7.11;43.81
69751;BME280;57335;52.288;6.056;2023-02-28T14:07:49;103090.56;;;7.09;42.82
69751;BME280;57335;52.288;6.056;2023-02-28T14:10:28;103095.13;;;7.17;42.18
69751;BME280;57335;52.288;6.056;2023-02-28T14:13:00;103109.06;;;7.27;43.87
69751;BME280;57335;52.288;6.056;2023-02-28T14:18:33;103100.41;;;7.27;43.60
69751;BME280;57335;52.288;6.056;2023-02-28T14:32:35;103091.69;;;6.95;45.91
69751;BME280;57335;52.288;6.056;2023-02-28T14:35:40;103093.44;;;7.06;46.09
69751;BME280;57335;52.288;6.056;2023-02-28T14:38:19;103096.63;;;7.10;45.15
69751;BME280;57335;52.288;6.056;2023-02-28T14:40:49;103096.47;;;7.11;44.24
69751;BME280;57335;52.288;6.056;2023-02-28T14:43:23;103086.94;;;7.01;44.26
69751;BME280;57335;52.288;6.056;2023-02-28T14:45:52;103091.91;;;6.71;48.04
69751;BME280;57335;52.288;6.056;2023-02-28T14:48:20;103094.16;;;6.76;46.34
69751;BME280;57335;52.288;6.056;2023-02-28T14:50:53;103081.78;;;6.57;47.28
69751;BME280;57335;52.288;6.056;2023-02-28T14:53:21;103071.84;;;6.62;47.27
69751;BME280;57335;52.288;6.056;2023-02-28T14:55:49;103078.25;;;6.58;49.21
69751;BME280;57335;52.288;6.056;2023-02-28T14:58:25;103074.97;;;6.45;49.81
69751;BME280;57335;52.288;6.056;2023-02-28T15:00:54;103078.84;;;6.62;46.68
69751;BME280;57335;52.288;6.056;2023-02-28T15:03:24;103092.19;;;6.25;47.71
69751;BME280;57335;52.288;6.056;2023-02-28T15:05:53;103083.34;;;6.05;50.57
69751;BME280;57335;52.288;6.056;2023-02-28T15:08:20;103092.22;;;6.13;49.04
69751;BME280;57335;52.288;6.056;2023-02-28T15:10:59;103099.16;;;6.35;47.71
69751;BME280;57335;52.288;6.056;2023-02-28T15:13:43;103086.84;;;6.37;46.54
69751;BME280;57335;52.288;6.056;2023-02-28T15:16:12;103089.28;;;6.50;47.39
69751;BME280;57335;52.288;6.056;2023-02-28T15:21:14;103090.19;;;6.61;47.04
69751;BME280;57335;52.288;6.056;2023-02-28T15:23:44;103089.03;;;6.53;47.93